Terminal Aerodrome Forecast
Issued by NWS

Home | Current Version | Previous Version | Text Only | Print | Product List | Glossary On
Versions: 1 2 3 4 5 6 7 8 9 10 11 12
000
FTUS42 KTBW 030525
TAFLAL
TAF
KLAL 030525Z 0306/0406 VRB03KT P6SM BKN250
     FM030900 00000KT P6SM SCT250
     FM031500 VRB03KT P6SM SCT035 SCT250
     FM031800 20004KT P6SM VCTS BKN050CB
     FM040100 VRB04KT P6SM SCT050 BKN250
      AMD NOT SKED 0306/0312=

USA.gov is the U.S. government's official web portal to all federal, state and local government web resources and services.